createdAt,value
2022-11-26T00:03:06.072Z,13.86
2022-11-26T00:05:35.663Z,13.80
2022-11-26T00:08:30.499Z,13.81
2022-11-26T00:11:08.344Z,13.80
2022-11-26T00:13:41.288Z,13.79
2022-11-26T00:16:16.218Z,13.76
2022-11-26T00:19:36.103Z,13.79
2022-11-26T00:25:04.098Z,13.87
2022-11-26T00:30:31.205Z,13.96
2022-11-26T00:33:07.072Z,13.95
2022-11-26T00:35:53.975Z,13.90
2022-11-26T00:38:27.480Z,13.93
2022-11-26T00:41:07.189Z,13.87
2022-11-26T00:43:46.958Z,13.93
2022-11-26T00:46:33.918Z,13.97
2022-11-26T00:49:08.829Z,13.99
2022-11-26T00:51:43.423Z,13.86
2022-11-26T00:54:18.375Z,13.96
2022-11-26T00:57:01.771Z,13.93
2022-11-26T00:59:45.935Z,13.92
2022-11-26T01:02:15.423Z,13.94
2022-11-26T01:04:55.142Z,13.95
2022-11-26T01:07:27.055Z,13.94
2022-11-26T01:10:02.871Z,13.95
2022-11-26T01:13:00.294Z,14.01
2022-11-26T01:15:41.259Z,13.97
2022-11-26T01:18:25.820Z,13.96
2022-11-26T01:21:00.183Z,13.92
2022-11-26T01:23:39.679Z,13.88
2022-11-26T01:29:38.783Z,13.80
2022-11-26T01:32:12.203Z,13.83
2022-11-26T01:34:42.860Z,13.84
2022-11-26T01:37:18.726Z,13.84
2022-11-26T01:39:50.202Z,13.85
2022-11-26T01:42:35.903Z,13.82
2022-11-26T01:45:13.530Z,13.79
2022-11-26T01:47:54.863Z,13.79
2022-11-26T01:51:13.984Z,13.74
2022-11-26T01:53:48.950Z,13.75
2022-11-26T01:56:25.465Z,13.75
2022-11-26T01:59:05.238Z,13.76
2022-11-26T02:01:36.972Z,13.79
2022-11-26T02:04:15.360Z,13.80
2022-11-26T02:06:45.133Z,13.80
2022-11-26T02:09:15.107Z,13.81
2022-11-26T02:11:48.072Z,13.87
2022-11-26T02:14:37.781Z,13.90
2022-11-26T02:17:15.461Z,13.88
2022-11-26T02:20:30.324Z,14.00
2022-11-26T02:23:46.628Z,14.03
2022-11-26T02:26:52.299Z,14.07
2022-11-26T02:29:26.414Z,14.12
2022-11-26T02:34:56.403Z,14.20
2022-11-26T02:37:31.568Z,14.24
2022-11-26T02:40:27.344Z,14.28
2022-11-26T02:43:06.996Z,14.30
2022-11-26T02:45:59.968Z,14.35
2022-11-26T02:48:48.673Z,14.39
2022-11-26T02:51:22.142Z,14.44
2022-11-26T02:53:59.145Z,14.47
2022-11-26T02:56:29.085Z,14.51
2022-11-26T02:59:01.373Z,14.54
2022-11-26T03:01:52.982Z,14.52
2022-11-26T03:04:28.576Z,14.54
2022-11-26T03:07:18.568Z,14.59
2022-11-26T03:10:06.750Z,14.57
2022-11-26T03:12:41.397Z,14.59
2022-11-26T03:15:15.909Z,14.60
2022-11-26T03:17:54.174Z,14.61
2022-11-26T03:20:38.920Z,14.65
2022-11-26T03:23:24.673Z,14.59
2022-11-26T03:26:08.666Z,14.65
2022-11-26T03:28:44.097Z,14.70
2022-11-26T03:31:16.916Z,14.71
2022-11-26T03:34:04.050Z,14.75
2022-11-26T03:36:50.358Z,14.75
2022-11-26T03:39:34.232Z,14.78
2022-11-26T03:42:06.091Z,14.78
2022-11-26T03:44:54.032Z,14.81
2022-11-26T03:47:49.504Z,14.81
2022-11-26T03:50:39.324Z,14.83
2022-11-26T03:53:17.273Z,14.81
2022-11-26T03:55:51.346Z,14.70
2022-11-26T03:58:22.097Z,14.74
2022-11-26T04:01:00.889Z,14.80
2022-11-26T04:03:34.451Z,14.82
2022-11-26T04:06:07.034Z,14.82
2022-11-26T04:08:53.763Z,14.85
2022-11-26T04:11:38.806Z,14.82
2022-11-26T04:14:12.442Z,14.84
2022-11-26T04:16:42.542Z,14.84
2022-11-26T04:19:11.937Z,14.85
2022-11-26T04:21:41.240Z,14.84
2022-11-26T04:24:16.381Z,14.83
2022-11-26T04:26:47.956Z,14.85
2022-11-26T04:29:22.200Z,14.85
2022-11-26T04:32:07.439Z,14.85
2022-11-26T04:34:41.453Z,14.85
2022-11-26T04:37:11.573Z,14.82
2022-11-26T04:42:40.971Z,14.88
2022-11-26T04:45:17.366Z,14.92
2022-11-26T04:47:52.015Z,14.89
2022-11-26T04:50:22.417Z,14.95
2022-11-26T04:52:53.089Z,14.97
2022-11-26T04:55:28.080Z,14.99
2022-11-26T04:58:10.351Z,14.99
2022-11-26T05:01:31.304Z,14.99
2022-11-26T05:04:14.191Z,15.03
2022-11-26T05:06:50.642Z,15.02
2022-11-26T05:09:32.354Z,15.03
2022-11-26T05:12:08.815Z,14.98
2022-11-26T05:14:43.061Z,14.91
2022-11-26T05:17:21.123Z,14.93
2022-11-26T05:19:55.144Z,14.98
2022-11-26T05:22:25.582Z,15.00
2022-11-26T05:25:00.140Z,15.01
2022-11-26T05:27:35.167Z,15.01
2022-11-26T05:30:13.785Z,15.02
2022-11-26T05:32:49.229Z,15.03
2022-11-26T05:35:24.093Z,15.03
2022-11-26T05:37:59.978Z,15.02
2022-11-26T05:41:18.216Z,15.01
2022-11-26T05:43:53.061Z,14.99
2022-11-26T05:46:28.327Z,15.00
2022-11-26T05:49:13.369Z,14.99
2022-11-26T05:51:54.722Z,14.99
2022-11-26T05:54:43.339Z,14.96
2022-11-26T05:57:17.355Z,14.96
2022-11-26T06:02:57.979Z,14.96
2022-11-26T06:05:43.733Z,14.94
2022-11-26T06:08:31.654Z,14.92
2022-11-26T06:11:01.337Z,14.89
2022-11-26T06:13:38.595Z,14.92
2022-11-26T06:16:13.993Z,14.90
2022-11-26T06:19:09.466Z,14.90
2022-11-26T06:21:39.576Z,14.88
2022-11-26T06:24:24.401Z,14.87
2022-11-26T06:30:37.645Z,14.87
2022-11-26T06:33:29.427Z,14.89
2022-11-26T06:36:11.358Z,14.88
2022-11-26T06:39:01.147Z,14.87
2022-11-26T06:41:48.137Z,14.88
2022-11-26T06:44:18.413Z,14.84
2022-11-26T06:46:51.811Z,14.86
2022-11-26T06:49:36.852Z,14.86
2022-11-26T06:52:10.470Z,14.87
2022-11-26T06:54:46.967Z,14.86
2022-11-26T06:57:19.961Z,14.85
2022-11-26T07:00:05.606Z,14.81
2022-11-26T07:02:43.769Z,14.86
2022-11-26T07:05:20.380Z,14.82
2022-11-26T07:07:52.187Z,14.88
2022-11-26T07:10:23.765Z,14.90
2022-11-26T07:12:59.773Z,14.92
2022-11-26T07:15:35.039Z,14.88
2022-11-26T07:18:32.058Z,14.87
2022-11-26T07:21:17.954Z,14.94
2022-11-26T07:24:22.040Z,14.92
2022-11-26T07:32:39.406Z,15.02
2022-11-26T07:35:44.247Z,15.07
2022-11-26T07:38:17.786Z,15.08
2022-11-26T07:40:54.640Z,15.10
2022-11-26T07:43:33.549Z,15.14
2022-11-26T07:46:09.763Z,15.18
2022-11-26T07:48:43.563Z,15.23
2022-11-26T07:51:24.487Z,15.24
2022-11-26T07:54:22.945Z,15.26
2022-11-26T07:57:03.012Z,15.29
2022-11-26T07:59:37.482Z,15.28
2022-11-26T08:02:16.144Z,15.35
2022-11-26T08:05:11.433Z,15.40
2022-11-26T08:07:50.939Z,15.42
2022-11-26T08:10:25.887Z,15.41
2022-11-26T08:13:18.379Z,15.48
2022-11-26T08:15:55.478Z,15.49
2022-11-26T08:18:39.095Z,15.53
2022-11-26T08:21:11.700Z,15.55
2022-11-26T08:26:43.685Z,15.57
2022-11-26T08:29:17.320Z,15.58
2022-11-26T08:31:48.630Z,15.63
2022-11-26T08:34:23.351Z,15.63
2022-11-26T08:37:23.723Z,15.60
2022-11-26T08:39:57.123Z,15.62
2022-11-26T08:42:54.454Z,15.59
2022-11-26T08:45:41.526Z,15.60
2022-11-26T08:48:27.861Z,15.59
2022-11-26T08:51:10.597Z,15.65
2022-11-26T08:53:57.668Z,15.68
2022-11-26T08:56:34.578Z,15.77
2022-11-26T08:59:08.313Z,15.84
2022-11-26T09:01:56.635Z,15.95
2022-11-26T09:05:23.540Z,15.99
2022-11-26T09:08:06.268Z,16.09
2022-11-26T09:10:55.487Z,16.12
2022-11-26T09:13:47.058Z,16.09
2022-11-26T09:16:29.877Z,16.21
2022-11-26T09:19:39.836Z,16.21
2022-11-26T09:22:17.285Z,16.27
2022-11-26T09:24:45.303Z,16.30
2022-11-26T09:27:13.508Z,16.32
2022-11-26T09:29:48.343Z,16.37
2022-11-26T09:37:52.034Z,16.38
2022-11-26T09:40:28.443Z,16.48
2022-11-26T09:43:10.617Z,16.50
2022-11-26T09:45:59.851Z,16.49
2022-11-26T09:48:35.779Z,16.47
2022-11-26T09:51:12.107Z,16.54
2022-11-26T09:53:57.172Z,16.63
2022-11-26T09:56:37.233Z,16.64
2022-11-26T09:59:12.868Z,16.64
2022-11-26T10:01:45.804Z,16.65
2022-11-26T10:04:29.426Z,16.61
2022-11-26T10:07:07.930Z,16.65
2022-11-26T10:13:19.083Z,16.65
2022-11-26T10:16:20.048Z,16.70
2022-11-26T10:22:57.324Z,16.76
2022-11-26T10:26:08.747Z,16.70
2022-11-26T10:28:54.975Z,16.77
2022-11-26T10:34:58.938Z,16.80
2022-11-26T10:38:25.204Z,16.87
2022-11-26T10:52:00.341Z,16.91
2022-11-26T10:58:28.720Z,16.90
2022-11-26T11:04:55.834Z,16.77
2022-11-26T11:07:57.132Z,16.82
2022-11-26T11:14:08.695Z,16.79
2022-11-26T11:16:56.047Z,16.80
2022-11-26T11:20:27.434Z,16.81
2022-11-26T11:26:17.599Z,16.79
2022-11-26T11:29:19.981Z,16.76
2022-11-26T11:39:03.722Z,16.74
2022-11-26T11:41:44.275Z,16.70
2022-11-26T11:48:02.352Z,16.58
2022-11-26T12:04:54.448Z,16.70
2022-11-26T12:08:18.038Z,16.65
2022-11-26T12:15:32.007Z,16.64
2022-11-26T12:29:23.170Z,16.51
2022-11-26T12:33:21.577Z,16.51
2022-11-26T12:39:53.323Z,16.49
2022-11-26T12:53:22.017Z,16.53
2022-11-26T12:56:34.373Z,16.55
2022-11-26T12:59:31.614Z,16.55
2022-11-26T13:03:22.859Z,16.59
2022-11-26T13:07:04.528Z,16.60
2022-11-26T13:22:37.438Z,16.66
2022-11-26T14:04:33.791Z,16.77
2022-11-26T14:11:52.351Z,16.95
2022-11-26T14:15:25.345Z,16.96
2022-11-26T14:18:47.188Z,16.94
2022-11-26T14:22:04.459Z,16.90
2022-11-26T14:25:24.503Z,16.87
2022-11-26T14:38:11.850Z,16.94
2022-11-26T15:07:53.045Z,17.15
2022-11-26T15:19:52.518Z,17.14
2022-11-26T15:23:26.883Z,17.20
2022-11-26T15:46:08.444Z,17.10
2022-11-26T15:49:18.982Z,17.04
2022-11-26T16:17:05.067Z,16.68
2022-11-26T16:20:11.115Z,16.70
2022-11-26T16:27:18.013Z,16.74
2022-11-26T16:34:20.769Z,16.76
2022-11-26T16:37:13.564Z,16.79
2022-11-26T16:44:07.800Z,16.87
2022-11-26T16:47:07.293Z,16.91
2022-11-26T16:50:09.432Z,16.94
2022-11-26T16:58:55.362Z,16.96
2022-11-26T17:02:09.495Z,17.01
2022-11-26T17:05:02.035Z,17.05
2022-11-26T17:10:58.538Z,17.03
2022-11-26T17:13:33.854Z,17.04
2022-11-26T17:16:43.815Z,17.11
2022-11-26T17:22:48.427Z,17.09
2022-11-26T17:25:24.589Z,17.09
2022-11-26T17:27:57.217Z,17.04
2022-11-26T17:30:32.736Z,17.06
2022-11-26T17:33:04.319Z,17.07
2022-11-26T17:35:36.996Z,17.06
2022-11-26T17:38:16.199Z,17.08
2022-11-26T17:41:00.973Z,16.98
2022-11-26T17:43:39.401Z,17.08
2022-11-26T17:46:17.223Z,17.05
2022-11-26T17:48:54.431Z,17.11
2022-11-26T17:51:34.393Z,17.14
2022-11-26T17:54:10.074Z,17.17
2022-11-26T17:56:42.263Z,17.19
2022-11-26T17:59:27.092Z,17.20
2022-11-26T18:02:03.787Z,17.19
2022-11-26T18:04:43.723Z,17.15
2022-11-26T18:07:32.188Z,17.14
2022-11-26T18:13:04.707Z,17.09
2022-11-26T18:15:44.722Z,17.23
2022-11-26T18:18:19.645Z,17.23
2022-11-26T18:20:51.872Z,17.15
2022-11-26T18:26:09.982Z,17.32
2022-11-26T18:28:43.874Z,17.32
2022-11-26T18:31:28.223Z,17.32
2022-11-26T18:34:08.459Z,17.39
2022-11-26T18:36:49.434Z,17.37
2022-11-26T18:39:25.436Z,17.38
2022-11-26T18:42:36.499Z,17.33
2022-11-26T18:45:07.233Z,17.25
2022-11-26T18:48:06.022Z,17.34
2022-11-26T18:50:59.392Z,17.37
2022-11-26T18:53:57.163Z,17.30
2022-11-26T18:56:48.674Z,17.32
2022-11-26T18:59:33.860Z,17.29
2022-11-26T19:28:05.214Z,16.97
2022-11-26T20:00:10.953Z,17.04
2022-11-26T20:14:39.511Z,17.24
2022-11-26T21:08:32.654Z,17.46
2022-11-26T21:19:32.395Z,17.56
2022-11-26T22:01:43.958Z,17.95
2022-11-26T23:47:35.321Z,17.75
